sensor_id;sensor_type;location;lat;lon;timestamp;P1;durP1;ratioP1;P2;durP2;ratioP2
74821;SDS011;63353;48.702;8.884;2023-04-24T00:00:36;1.50;;;1.40;;
74821;SDS011;63353;48.702;8.884;2023-04-24T00:03:17;2.07;;;1.30;;
74821;SDS011;63353;48.702;8.884;2023-04-24T00:05:49;1.37;;;1.27;;
74821;SDS011;63353;48.702;8.884;2023-04-24T00:08:14;1.70;;;1.60;;
74821;SDS011;63353;48.702;8.884;2023-04-24T00:10:43;1.60;;;1.30;;
74821;SDS011;63353;48.702;8.884;2023-04-24T00:13:09;2.13;;;1.33;;
74821;SDS011;63353;48.702;8.884;2023-04-24T00:15:35;1.37;;;1.30;;
74821;SDS011;63353;48.702;8.884;2023-04-24T00:18:00;1.37;;;1.27;;
74821;SDS011;63353;48.702;8.884;2023-04-24T00:20:35;1.43;;;1.33;;
74821;SDS011;63353;48.702;8.884;2023-04-24T00:23:07;1.87;;;1.37;;
74821;SDS011;63353;48.702;8.884;2023-04-24T00:25:36;1.40;;;1.30;;
74821;SDS011;63353;48.702;8.884;2023-04-24T00:28:01;1.30;;;1.20;;
74821;SDS011;63353;48.702;8.884;2023-04-24T00:30:30;1.23;;;1.23;;
74821;SDS011;63353;48.702;8.884;2023-04-24T00:32:58;1.40;;;1.30;;
74821;SDS011;63353;48.702;8.884;2023-04-24T00:35:24;1.30;;;1.20;;
74821;SDS011;63353;48.702;8.884;2023-04-24T00:37:50;1.20;;;1.20;;
74821;SDS011;63353;48.702;8.884;2023-04-24T00:40:15;2.50;;;1.30;;
74821;SDS011;63353;48.702;8.884;2023-04-24T00:42:41;1.40;;;1.30;;
74821;SDS011;63353;48.702;8.884;2023-04-24T00:45:08;1.50;;;1.40;;
74821;SDS011;63353;48.702;8.884;2023-04-24T00:47:40;1.50;;;1.40;;
74821;SDS011;63353;48.702;8.884;2023-04-24T00:50:07;1.57;;;1.43;;
74821;SDS011;63353;48.702;8.884;2023-04-24T00:52:33;1.83;;;1.70;;
74821;SDS011;63353;48.702;8.884;2023-04-24T00:55:02;1.50;;;1.40;;
74821;SDS011;63353;48.702;8.884;2023-04-24T00:57:28;1.70;;;1.60;;
74821;SDS011;63353;48.702;8.884;2023-04-24T01:00:00;1.67;;;1.57;;
74821;SDS011;63353;48.702;8.884;2023-04-24T01:02:26;2.67;;;1.33;;
74821;SDS011;63353;48.702;8.884;2023-04-24T01:04:55;1.50;;;1.40;;
74821;SDS011;63353;48.702;8.884;2023-04-24T01:07:21;1.77;;;1.67;;
74821;SDS011;63353;48.702;8.884;2023-04-24T01:09:59;1.63;;;1.53;;
74821;SDS011;63353;48.702;8.884;2023-04-24T01:12:25;2.00;;;1.80;;
74821;SDS011;63353;48.702;8.884;2023-04-24T01:14:57;2.03;;;1.60;;
74821;SDS011;63353;48.702;8.884;2023-04-24T01:17:23;2.67;;;1.70;;
74821;SDS011;63353;48.702;8.884;2023-04-24T01:19:55;2.40;;;1.60;;
74821;SDS011;63353;48.702;8.884;2023-04-24T01:22:25;1.70;;;1.60;;
74821;SDS011;63353;48.702;8.884;2023-04-24T01:24:51;2.17;;;1.80;;
74821;SDS011;63353;48.702;8.884;2023-04-24T01:27:18;1.87;;;1.70;;
74821;SDS011;63353;48.702;8.884;2023-04-24T01:29:44;1.90;;;1.80;;
74821;SDS011;63353;48.702;8.884;2023-04-24T01:32:16;2.00;;;1.80;;
74821;SDS011;63353;48.702;8.884;2023-04-24T01:34:43;1.67;;;1.57;;
74821;SDS011;63353;48.702;8.884;2023-04-24T01:37:15;1.70;;;1.60;;
74821;SDS011;63353;48.702;8.884;2023-04-24T01:39:42;2.63;;;1.77;;
74821;SDS011;63353;48.702;8.884;2023-04-24T01:42:15;1.97;;;1.60;;
74821;SDS011;63353;48.702;8.884;2023-04-24T01:44:41;1.77;;;1.60;;
74821;SDS011;63353;48.702;8.884;2023-04-24T01:47:10;1.70;;;1.60;;
74821;SDS011;63353;48.702;8.884;2023-04-24T01:49:38;1.80;;;1.70;;
74821;SDS011;63353;48.702;8.884;2023-04-24T01:52:04;2.17;;;1.80;;
74821;SDS011;63353;48.702;8.884;2023-04-24T01:54:30;3.10;;;1.73;;
74821;SDS011;63353;48.702;8.884;2023-04-24T01:57:11;2.40;;;1.70;;
74821;SDS011;63353;48.702;8.884;2023-04-24T01:59:46;2.27;;;1.83;;
74821;SDS011;63353;48.702;8.884;2023-04-24T02:02:14;1.83;;;1.73;;
74821;SDS011;63353;48.702;8.884;2023-04-24T02:04:40;3.20;;;1.60;;
74821;SDS011;63353;48.702;8.884;2023-04-24T02:07:06;1.90;;;1.60;;
74821;SDS011;63353;48.702;8.884;2023-04-24T02:09:31;2.20;;;1.73;;
74821;SDS011;63353;48.702;8.884;2023-04-24T02:11:57;1.97;;;1.77;;
74821;SDS011;63353;48.702;8.884;2023-04-24T02:14:34;1.83;;;1.60;;
74821;SDS011;63353;48.702;8.884;2023-04-24T02:17:00;2.43;;;1.70;;
74821;SDS011;63353;48.702;8.884;2023-04-24T02:19:32;1.80;;;1.70;;
74821;SDS011;63353;48.702;8.884;2023-04-24T02:21:57;2.83;;;1.80;;
74821;SDS011;63353;48.702;8.884;2023-04-24T02:24:23;3.50;;;1.80;;
74821;SDS011;63353;48.702;8.884;2023-04-24T02:26:48;2.93;;;2.00;;
74821;SDS011;63353;48.702;8.884;2023-04-24T02:29:14;1.70;;;1.60;;
74821;SDS011;63353;48.702;8.884;2023-04-24T02:31:40;2.13;;;1.90;;
74821;SDS011;63353;48.702;8.884;2023-04-24T02:34:06;2.37;;;1.80;;
74821;SDS011;63353;48.702;8.884;2023-04-24T02:36:32;3.90;;;2.00;;
74821;SDS011;63353;48.702;8.884;2023-04-24T02:38:57;2.20;;;2.00;;
74821;SDS011;63353;48.702;8.884;2023-04-24T02:41:23;2.07;;;1.70;;
74821;SDS011;63353;48.702;8.884;2023-04-24T02:43:48;1.83;;;1.73;;
74821;SDS011;63353;48.702;8.884;2023-04-24T02:46:14;2.10;;;1.90;;
74821;SDS011;63353;48.702;8.884;2023-04-24T02:48:46;2.20;;;2.00;;
74821;SDS011;63353;48.702;8.884;2023-04-24T02:51:12;2.37;;;1.77;;
74821;SDS011;63353;48.702;8.884;2023-04-24T02:53:37;2.90;;;1.83;;
74821;SDS011;63353;48.702;8.884;2023-04-24T02:56:06;1.90;;;1.80;;
74821;SDS011;63353;48.702;8.884;2023-04-24T02:58:31;2.30;;;2.00;;
74821;SDS011;63353;48.702;8.884;2023-04-24T03:00:57;2.57;;;2.10;;
74821;SDS011;63353;48.702;8.884;2023-04-24T03:03:23;2.00;;;1.90;;
74821;SDS011;63353;48.702;8.884;2023-04-24T03:05:52;1.90;;;1.80;;
74821;SDS011;63353;48.702;8.884;2023-04-24T03:08:17;3.57;;;2.03;;
74821;SDS011;63353;48.702;8.884;2023-04-24T03:10:43;2.90;;;2.33;;
74821;SDS011;63353;48.702;8.884;2023-04-24T03:13:12;2.83;;;1.90;;
74821;SDS011;63353;48.702;8.884;2023-04-24T03:15:43;2.43;;;2.23;;
74821;SDS011;63353;48.702;8.884;2023-04-24T03:18:10;2.57;;;2.37;;
74821;SDS011;63353;48.702;8.884;2023-04-24T03:20:35;3.03;;;2.50;;
74821;SDS011;63353;48.702;8.884;2023-04-24T03:23:11;3.00;;;2.33;;
74821;SDS011;63353;48.702;8.884;2023-04-24T03:25:43;4.73;;;2.17;;
74821;SDS011;63353;48.702;8.884;2023-04-24T03:28:09;2.60;;;2.37;;
74821;SDS011;63353;48.702;8.884;2023-04-24T03:30:37;2.90;;;2.30;;
74821;SDS011;63353;48.702;8.884;2023-04-24T03:33:03;2.40;;;2.30;;
74821;SDS011;63353;48.702;8.884;2023-04-24T03:35:28;2.77;;;2.40;;
74821;SDS011;63353;48.702;8.884;2023-04-24T03:37:55;3.20;;;2.30;;
74821;SDS011;63353;48.702;8.884;2023-04-24T03:40:20;3.03;;;2.60;;
74821;SDS011;63353;48.702;8.884;2023-04-24T03:42:46;2.60;;;2.40;;
74821;SDS011;63353;48.702;8.884;2023-04-24T03:45:11;3.23;;;2.47;;
74821;SDS011;63353;48.702;8.884;2023-04-24T03:47:37;2.50;;;2.30;;
74821;SDS011;63353;48.702;8.884;2023-04-24T03:50:06;2.57;;;2.30;;
74821;SDS011;63353;48.702;8.884;2023-04-24T03:52:35;2.60;;;2.40;;
74821;SDS011;63353;48.702;8.884;2023-04-24T03:55:01;2.57;;;2.37;;
74821;SDS011;63353;48.702;8.884;2023-04-24T03:57:27;2.60;;;2.40;;
74821;SDS011;63353;48.702;8.884;2023-04-24T03:59:53;4.00;;;2.53;;
74821;SDS011;63353;48.702;8.884;2023-04-24T04:02:18;2.50;;;2.30;;
74821;SDS011;63353;48.702;8.884;2023-04-24T04:04:44;1.97;;;1.87;;
74821;SDS011;63353;48.702;8.884;2023-04-24T04:07:10;2.53;;;2.27;;
74821;SDS011;63353;48.702;8.884;2023-04-24T04:09:37;1.93;;;1.83;;
74821;SDS011;63353;48.702;8.884;2023-04-24T04:12:03;2.53;;;1.70;;
74821;SDS011;63353;48.702;8.884;2023-04-24T04:14:29;2.47;;;1.67;;
74821;SDS011;63353;48.702;8.884;2023-04-24T04:16:55;2.07;;;1.70;;
74821;SDS011;63353;48.702;8.884;2023-04-24T04:19:20;2.20;;;2.00;;
74821;SDS011;63353;48.702;8.884;2023-04-24T04:21:46;2.23;;;2.03;;
74821;SDS011;63353;48.702;8.884;2023-04-24T04:24:23;3.03;;;2.00;;
74821;SDS011;63353;48.702;8.884;2023-04-24T04:26:49;2.40;;;2.20;;
74821;SDS011;63353;48.702;8.884;2023-04-24T04:29:16;2.30;;;2.10;;
74821;SDS011;63353;48.702;8.884;2023-04-24T04:31:43;3.27;;;2.33;;
74821;SDS011;63353;48.702;8.884;2023-04-24T04:34:12;2.40;;;2.20;;
74821;SDS011;63353;48.702;8.884;2023-04-24T04:36:39;2.70;;;2.50;;
74821;SDS011;63353;48.702;8.884;2023-04-24T04:39:05;2.60;;;2.40;;
74821;SDS011;63353;48.702;8.884;2023-04-24T04:41:31;2.50;;;2.37;;
74821;SDS011;63353;48.702;8.884;2023-04-24T04:44:03;2.57;;;2.40;;
74821;SDS011;63353;48.702;8.884;2023-04-24T04:46:29;3.77;;;2.60;;
74821;SDS011;63353;48.702;8.884;2023-04-24T04:48:57;2.70;;;2.50;;
74821;SDS011;63353;48.702;8.884;2023-04-24T04:51:24;2.53;;;2.30;;
74821;SDS011;63353;48.702;8.884;2023-04-24T04:53:53;3.30;;;2.53;;
74821;SDS011;63353;48.702;8.884;2023-04-24T04:56:18;2.70;;;2.50;;
74821;SDS011;63353;48.702;8.884;2023-04-24T04:58:47;2.53;;;2.33;;
74821;SDS011;63353;48.702;8.884;2023-04-24T05:01:12;3.47;;;2.70;;
74821;SDS011;63353;48.702;8.884;2023-04-24T05:03:38;2.90;;;2.60;;
74821;SDS011;63353;48.702;8.884;2023-04-24T05:06:13;2.90;;;2.70;;
74821;SDS011;63353;48.702;8.884;2023-04-24T05:08:42;2.97;;;2.40;;
74821;SDS011;63353;48.702;8.884;2023-04-24T05:11:07;2.70;;;2.50;;
74821;SDS011;63353;48.702;8.884;2023-04-24T05:13:36;2.90;;;2.60;;
74821;SDS011;63353;48.702;8.884;2023-04-24T05:16:02;2.87;;;2.67;;
74821;SDS011;63353;48.702;8.884;2023-04-24T05:18:30;3.10;;;2.50;;
74821;SDS011;63353;48.702;8.884;2023-04-24T05:21:02;2.80;;;2.50;;
74821;SDS011;63353;48.702;8.884;2023-04-24T05:23:27;3.10;;;2.80;;
74821;SDS011;63353;48.702;8.884;2023-04-24T05:25:53;3.77;;;2.83;;
74821;SDS011;63353;48.702;8.884;2023-04-24T05:28:19;3.00;;;2.70;;
74821;SDS011;63353;48.702;8.884;2023-04-24T05:30:51;4.00;;;3.10;;
74821;SDS011;63353;48.702;8.884;2023-04-24T05:33:17;3.40;;;3.10;;
74821;SDS011;63353;48.702;8.884;2023-04-24T05:35:42;3.50;;;3.17;;
74821;SDS011;63353;48.702;8.884;2023-04-24T05:38:12;3.80;;;3.50;;
74821;SDS011;63353;48.702;8.884;2023-04-24T05:40:38;3.53;;;3.23;;
74821;SDS011;63353;48.702;8.884;2023-04-24T05:43:04;3.80;;;3.50;;
74821;SDS011;63353;48.702;8.884;2023-04-24T05:45:30;3.60;;;3.30;;
74821;SDS011;63353;48.702;8.884;2023-04-24T05:48:02;6.90;;;3.33;;
74821;SDS011;63353;48.702;8.884;2023-04-24T05:50:28;3.77;;;3.17;;
74821;SDS011;63353;48.702;8.884;2023-04-24T05:52:56;3.40;;;3.10;;
74821;SDS011;63353;48.702;8.884;2023-04-24T05:55:27;4.53;;;3.33;;
74821;SDS011;63353;48.702;8.884;2023-04-24T05:57:58;3.30;;;3.00;;
74821;SDS011;63353;48.702;8.884;2023-04-24T06:00:25;3.40;;;3.10;;
74821;SDS011;63353;48.702;8.884;2023-04-24T06:02:51;3.93;;;3.43;;
74821;SDS011;63353;48.702;8.884;2023-04-24T06:05:24;3.37;;;3.10;;
74821;SDS011;63353;48.702;8.884;2023-04-24T06:07:50;3.10;;;2.80;;
74821;SDS011;63353;48.702;8.884;2023-04-24T06:10:19;3.30;;;3.00;;
74821;SDS011;63353;48.702;8.884;2023-04-24T06:12:53;3.40;;;3.10;;
74821;SDS011;63353;48.702;8.884;2023-04-24T06:15:30;3.10;;;2.90;;
74821;SDS011;63353;48.702;8.884;2023-04-24T06:17:59;3.70;;;3.07;;
74821;SDS011;63353;48.702;8.884;2023-04-24T06:20:25;5.43;;;3.20;;
74821;SDS011;63353;48.702;8.884;2023-04-24T06:22:50;3.50;;;3.20;;
74821;SDS011;63353;48.702;8.884;2023-04-24T06:25:19;3.40;;;3.10;;
74821;SDS011;63353;48.702;8.884;2023-04-24T06:27:54;3.30;;;3.00;;
74821;SDS011;63353;48.702;8.884;2023-04-24T06:30:20;3.20;;;2.90;;
74821;SDS011;63353;48.702;8.884;2023-04-24T06:32:49;3.43;;;3.10;;
74821;SDS011;63353;48.702;8.884;2023-04-24T06:35:14;3.23;;;2.90;;
74821;SDS011;63353;48.702;8.884;2023-04-24T06:37:41;3.53;;;3.23;;
74821;SDS011;63353;48.702;8.884;2023-04-24T06:40:13;3.40;;;2.73;;
74821;SDS011;63353;48.702;8.884;2023-04-24T06:42:48;3.43;;;2.93;;
74821;SDS011;63353;48.702;8.884;2023-04-24T06:45:13;3.40;;;3.10;;
74821;SDS011;63353;48.702;8.884;2023-04-24T06:47:39;5.23;;;3.50;;
74821;SDS011;63353;48.702;8.884;2023-04-24T06:50:05;3.30;;;3.00;;
74821;SDS011;63353;48.702;8.884;2023-04-24T06:52:31;5.73;;;3.50;;
74821;SDS011;63353;48.702;8.884;2023-04-24T06:55:03;3.30;;;3.00;;
74821;SDS011;63353;48.702;8.884;2023-04-24T06:57:30;3.83;;;3.00;;
74821;SDS011;63353;48.702;8.884;2023-04-24T06:59:59;2.90;;;2.70;;
74821;SDS011;63353;48.702;8.884;2023-04-24T07:02:24;3.53;;;2.83;;
74821;SDS011;63353;48.702;8.884;2023-04-24T07:04:56;3.13;;;2.83;;
74821;SDS011;63353;48.702;8.884;2023-04-24T07:07:22;3.10;;;2.80;;
74821;SDS011;63353;48.702;8.884;2023-04-24T07:09:48;2.83;;;2.53;;
74821;SDS011;63353;48.702;8.884;2023-04-24T07:12:21;3.70;;;3.00;;
74821;SDS011;63353;48.702;8.884;2023-04-24T07:14:50;5.27;;;3.90;;
74821;SDS011;63353;48.702;8.884;2023-04-24T07:17:16;4.33;;;3.60;;
74821;SDS011;63353;48.702;8.884;2023-04-24T07:19:42;3.30;;;3.00;;
74821;SDS011;63353;48.702;8.884;2023-04-24T07:22:07;3.47;;;2.40;;
74821;SDS011;63353;48.702;8.884;2023-04-24T07:24:36;2.80;;;2.60;;
74821;SDS011;63353;48.702;8.884;2023-04-24T07:27:14;2.97;;;2.70;;
74821;SDS011;63353;48.702;8.884;2023-04-24T07:29:40;2.63;;;2.43;;
74821;SDS011;63353;48.702;8.884;2023-04-24T07:32:21;3.10;;;2.73;;
74821;SDS011;63353;48.702;8.884;2023-04-24T07:34:46;2.70;;;2.50;;
74821;SDS011;63353;48.702;8.884;2023-04-24T07:37:22;5.13;;;3.93;;
74821;SDS011;63353;48.702;8.884;2023-04-24T07:39:51;3.63;;;3.20;;
74821;SDS011;63353;48.702;8.884;2023-04-24T07:42:29;2.63;;;2.43;;
74821;SDS011;63353;48.702;8.884;2023-04-24T07:44:58;3.27;;;2.97;;
74821;SDS011;63353;48.702;8.884;2023-04-24T07:47:24;3.63;;;2.63;;
74821;SDS011;63353;48.702;8.884;2023-04-24T07:49:53;2.93;;;2.63;;
74821;SDS011;63353;48.702;8.884;2023-04-24T07:52:22;3.83;;;2.70;;
74821;SDS011;63353;48.702;8.884;2023-04-24T07:54:48;3.50;;;3.20;;
74821;SDS011;63353;48.702;8.884;2023-04-24T07:57:21;2.87;;;2.67;;
74821;SDS011;63353;48.702;8.884;2023-04-24T07:59:46;3.20;;;3.00;;
74821;SDS011;63353;48.702;8.884;2023-04-24T08:02:15;4.13;;;3.07;;
74821;SDS011;63353;48.702;8.884;2023-04-24T08:04:54;3.07;;;2.77;;
74821;SDS011;63353;48.702;8.884;2023-04-24T08:07:20;2.50;;;2.30;;
74821;SDS011;63353;48.702;8.884;2023-04-24T08:09:49;2.87;;;2.63;;
74821;SDS011;63353;48.702;8.884;2023-04-24T08:12:15;2.87;;;2.67;;
74821;SDS011;63353;48.702;8.884;2023-04-24T08:14:45;3.13;;;2.80;;
74821;SDS011;63353;48.702;8.884;2023-04-24T08:17:10;2.80;;;2.60;;
74821;SDS011;63353;48.702;8.884;2023-04-24T08:19:39;2.80;;;2.60;;
74821;SDS011;63353;48.702;8.884;2023-04-24T08:22:09;3.43;;;2.60;;
74821;SDS011;63353;48.702;8.884;2023-04-24T08:24:41;3.50;;;2.83;;
74821;SDS011;63353;48.702;8.884;2023-04-24T08:27:06;3.10;;;2.80;;
74821;SDS011;63353;48.702;8.884;2023-04-24T08:29:32;4.07;;;2.63;;
74821;SDS011;63353;48.702;8.884;2023-04-24T08:31:58;3.63;;;3.00;;
74821;SDS011;63353;48.702;8.884;2023-04-24T08:34:30;2.73;;;2.53;;
74821;SDS011;63353;48.702;8.884;2023-04-24T08:36:58;2.60;;;2.50;;
74821;SDS011;63353;48.702;8.884;2023-04-24T08:39:24;2.90;;;2.70;;
74821;SDS011;63353;48.702;8.884;2023-04-24T08:41:53;2.90;;;2.37;;
74821;SDS011;63353;48.702;8.884;2023-04-24T08:44:20;2.90;;;2.70;;
74821;SDS011;63353;48.702;8.884;2023-04-24T08:46:46;2.50;;;2.30;;
74821;SDS011;63353;48.702;8.884;2023-04-24T08:49:22;2.77;;;2.57;;
74821;SDS011;63353;48.702;8.884;2023-04-24T08:52:00;2.87;;;2.67;;
74821;SDS011;63353;48.702;8.884;2023-04-24T08:54:26;2.93;;;2.73;;
74821;SDS011;63353;48.702;8.884;2023-04-24T08:56:58;5.03;;;3.03;;
74821;SDS011;63353;48.702;8.884;2023-04-24T08:59:28;3.20;;;2.70;;
74821;SDS011;63353;48.702;8.884;2023-04-24T09:02:02;2.60;;;2.40;;
74821;SDS011;63353;48.702;8.884;2023-04-24T09:04:29;3.33;;;2.47;;
74821;SDS011;63353;48.702;8.884;2023-04-24T09:06:56;3.67;;;3.23;;
74821;SDS011;63353;48.702;8.884;2023-04-24T09:09:25;2.80;;;2.60;;
74821;SDS011;63353;48.702;8.884;2023-04-24T09:11:54;3.20;;;2.23;;
74821;SDS011;63353;48.702;8.884;2023-04-24T09:14:22;3.83;;;2.40;;
74821;SDS011;63353;48.702;8.884;2023-04-24T09:16:48;1.70;;;1.60;;
74821;SDS011;63353;48.702;8.884;2023-04-24T09:19:24;2.47;;;2.30;;
74821;SDS011;63353;48.702;8.884;2023-04-24T09:21:49;2.67;;;2.20;;
74821;SDS011;63353;48.702;8.884;2023-04-24T09:24:18;2.40;;;2.20;;
74821;SDS011;63353;48.702;8.884;2023-04-24T09:26:47;1.97;;;1.80;;
74821;SDS011;63353;48.702;8.884;2023-04-24T09:29:15;2.50;;;2.30;;
74821;SDS011;63353;48.702;8.884;2023-04-24T09:31:42;2.70;;;1.80;;
74821;SDS011;63353;48.702;8.884;2023-04-24T09:34:07;3.07;;;1.90;;
74821;SDS011;63353;48.702;8.884;2023-04-24T09:36:37;2.03;;;1.73;;
74821;SDS011;63353;48.702;8.884;2023-04-24T09:39:06;2.00;;;1.90;;
74821;SDS011;63353;48.702;8.884;2023-04-24T09:41:43;1.50;;;1.40;;
74821;SDS011;63353;48.702;8.884;2023-04-24T09:46:49;2.30;;;2.10;;
74821;SDS011;63353;48.702;8.884;2023-04-24T09:49:26;2.63;;;2.43;;
74821;SDS011;63353;48.702;8.884;2023-04-24T09:52:09;1.93;;;1.83;;
74821;SDS011;63353;48.702;8.884;2023-04-24T09:54:36;2.00;;;1.90;;
74821;SDS011;63353;48.702;8.884;2023-04-24T09:57:03;3.10;;;2.10;;
74821;SDS011;63353;48.702;8.884;2023-04-24T09:59:29;2.27;;;2.07;;
74821;SDS011;63353;48.702;8.884;2023-04-24T10:01:55;2.40;;;2.30;;
74821;SDS011;63353;48.702;8.884;2023-04-24T10:04:25;2.30;;;2.10;;
74821;SDS011;63353;48.702;8.884;2023-04-24T10:06:52;2.00;;;1.90;;
74821;SDS011;63353;48.702;8.884;2023-04-24T10:09:21;2.00;;;1.80;;
74821;SDS011;63353;48.702;8.884;2023-04-24T10:11:49;2.00;;;1.70;;
74821;SDS011;63353;48.702;8.884;2023-04-24T10:14:20;3.00;;;2.20;;
74821;SDS011;63353;48.702;8.884;2023-04-24T10:16:46;2.07;;;1.97;;
74821;SDS011;63353;48.702;8.884;2023-04-24T10:19:14;1.87;;;1.77;;
74821;SDS011;63353;48.702;8.884;2023-04-24T10:21:46;1.60;;;1.60;;
74821;SDS011;63353;48.702;8.884;2023-04-24T10:24:16;1.93;;;1.77;;
74821;SDS011;63353;48.702;8.884;2023-04-24T10:26:43;1.80;;;1.70;;
74821;SDS011;63353;48.702;8.884;2023-04-24T10:29:13;1.77;;;1.67;;
74821;SDS011;63353;48.702;8.884;2023-04-24T10:34:32;2.13;;;2.00;;
74821;SDS011;63353;48.702;8.884;2023-04-24T10:36:57;1.90;;;1.80;;
74821;SDS011;63353;48.702;8.884;2023-04-24T10:39:23;2.00;;;1.80;;
74821;SDS011;63353;48.702;8.884;2023-04-24T10:41:52;1.97;;;1.60;;
74821;SDS011;63353;48.702;8.884;2023-04-24T10:44:22;1.73;;;1.63;;
74821;SDS011;63353;48.702;8.884;2023-04-24T10:46:52;1.87;;;1.73;;
74821;SDS011;63353;48.702;8.884;2023-04-24T10:49:27;1.90;;;1.70;;
74821;SDS011;63353;48.702;8.884;2023-04-24T10:51:54;1.77;;;1.67;;
74821;SDS011;63353;48.702;8.884;2023-04-24T10:54:40;2.00;;;1.90;;
74821;SDS011;63353;48.702;8.884;2023-04-24T11:00:36;2.93;;;2.67;;
74821;SDS011;63353;48.702;8.884;2023-04-24T11:03:04;3.37;;;2.60;;
74821;SDS011;63353;48.702;8.884;2023-04-24T11:06:00;2.63;;;2.17;;
74821;SDS011;63353;48.702;8.884;2023-04-24T11:21:39;2.27;;;2.07;;
74821;SDS011;63353;48.702;8.884;2023-04-24T11:27:06;4.03;;;3.33;;
74821;SDS011;63353;48.702;8.884;2023-04-24T11:32:14;12.87;;;9.30;;
74821;SDS011;63353;48.702;8.884;2023-04-24T11:34:45;2.37;;;2.27;;
74821;SDS011;63353;48.702;8.884;2023-04-24T11:37:13;2.23;;;2.03;;
74821;SDS011;63353;48.702;8.884;2023-04-24T11:39:50;2.63;;;2.43;;
74821;SDS011;63353;48.702;8.884;2023-04-24T11:42:16;3.77;;;3.43;;
74821;SDS011;63353;48.702;8.884;2023-04-24T11:44:42;7.77;;;6.20;;
74821;SDS011;63353;48.702;8.884;2023-04-24T11:47:12;2.30;;;2.20;;
74821;SDS011;63353;48.702;8.884;2023-04-24T11:49:38;2.70;;;2.50;;
74821;SDS011;63353;48.702;8.884;2023-04-24T11:52:04;2.80;;;2.60;;
74821;SDS011;63353;48.702;8.884;2023-04-24T11:54:29;2.87;;;2.67;;
74821;SDS011;63353;48.702;8.884;2023-04-24T11:57:07;2.73;;;2.53;;
74821;SDS011;63353;48.702;8.884;2023-04-24T11:59:36;2.47;;;2.20;;
74821;SDS011;63353;48.702;8.884;2023-04-24T12:02:02;3.17;;;2.97;;
74821;SDS011;63353;48.702;8.884;2023-04-24T12:04:38;2.87;;;2.63;;
74821;SDS011;63353;48.702;8.884;2023-04-24T12:07:07;2.73;;;2.53;;
74821;SDS011;63353;48.702;8.884;2023-04-24T12:09:42;3.10;;;2.40;;
74821;SDS011;63353;48.702;8.884;2023-04-24T12:12:15;2.73;;;2.53;;
74821;SDS011;63353;48.702;8.884;2023-04-24T12:14:49;2.27;;;2.17;;
74821;SDS011;63353;48.702;8.884;2023-04-24T12:17:17;2.70;;;2.50;;
74821;SDS011;63353;48.702;8.884;2023-04-24T12:19:46;2.60;;;2.40;;
74821;SDS011;63353;48.702;8.884;2023-04-24T12:22:13;2.60;;;2.40;;
74821;SDS011;63353;48.702;8.884;2023-04-24T12:27:29;2.00;;;1.90;;
74821;SDS011;63353;48.702;8.884;2023-04-24T12:29:57;7.87;;;5.43;;
74821;SDS011;63353;48.702;8.884;2023-04-24T12:32:24;2.20;;;2.00;;
74821;SDS011;63353;48.702;8.884;2023-04-24T12:34:53;3.73;;;3.10;;
74821;SDS011;63353;48.702;8.884;2023-04-24T12:37:19;3.23;;;2.80;;
74821;SDS011;63353;48.702;8.884;2023-04-24T12:40:02;2.00;;;1.80;;
74821;SDS011;63353;48.702;8.884;2023-04-24T12:42:33;2.50;;;2.30;;
74821;SDS011;63353;48.702;8.884;2023-04-24T12:45:01;2.40;;;2.20;;
74821;SDS011;63353;48.702;8.884;2023-04-24T12:47:29;2.30;;;2.10;;
74821;SDS011;63353;48.702;8.884;2023-04-24T12:49:56;2.90;;;2.70;;
74821;SDS011;63353;48.702;8.884;2023-04-24T12:52:25;3.77;;;3.47;;
74821;SDS011;63353;48.702;8.884;2023-04-24T12:54:56;2.93;;;2.70;;
74821;SDS011;63353;48.702;8.884;2023-04-24T12:57:23;2.90;;;2.70;;
74821;SDS011;63353;48.702;8.884;2023-04-24T12:59:50;3.43;;;2.57;;
74821;SDS011;63353;48.702;8.884;2023-04-24T13:02:17;4.03;;;2.50;;
74821;SDS011;63353;48.702;8.884;2023-04-24T13:04:50;3.20;;;2.90;;
74821;SDS011;63353;48.702;8.884;2023-04-24T13:07:19;3.00;;;2.80;;
74821;SDS011;63353;48.702;8.884;2023-04-24T13:09:45;3.03;;;2.80;;
74821;SDS011;63353;48.702;8.884;2023-04-24T13:12:14;2.70;;;2.50;;
74821;SDS011;63353;48.702;8.884;2023-04-24T13:14:43;2.93;;;2.50;;
74821;SDS011;63353;48.702;8.884;2023-04-24T13:17:11;2.43;;;2.20;;
74821;SDS011;63353;48.702;8.884;2023-04-24T13:19:50;2.63;;;2.40;;
74821;SDS011;63353;48.702;8.884;2023-04-24T13:22:17;3.30;;;3.00;;
74821;SDS011;63353;48.702;8.884;2023-04-24T13:24:45;3.47;;;3.27;;
74821;SDS011;63353;48.702;8.884;2023-04-24T13:27:20;3.30;;;2.60;;
74821;SDS011;63353;48.702;8.884;2023-04-24T13:29:45;2.90;;;2.70;;
74821;SDS011;63353;48.702;8.884;2023-04-24T13:32:11;2.97;;;2.60;;
74821;SDS011;63353;48.702;8.884;2023-04-24T13:34:43;3.00;;;2.70;;
74821;SDS011;63353;48.702;8.884;2023-04-24T13:37:14;2.97;;;2.70;;
74821;SDS011;63353;48.702;8.884;2023-04-24T13:39:47;3.20;;;2.90;;
74821;SDS011;63353;48.702;8.884;2023-04-24T13:42:21;3.40;;;3.10;;
74821;SDS011;63353;48.702;8.884;2023-04-24T13:44:53;3.40;;;3.10;;
74821;SDS011;63353;48.702;8.884;2023-04-24T13:47:34;3.80;;;3.50;;
74821;SDS011;63353;48.702;8.884;2023-04-24T13:50:13;3.60;;;3.30;;
74821;SDS011;63353;48.702;8.884;2023-04-24T13:52:45;3.00;;;2.80;;
74821;SDS011;63353;48.702;8.884;2023-04-24T13:55:13;3.53;;;3.23;;
74821;SDS011;63353;48.702;8.884;2023-04-24T13:57:48;3.80;;;3.50;;
74821;SDS011;63353;48.702;8.884;2023-04-24T14:00:17;4.07;;;3.67;;
74821;SDS011;63353;48.702;8.884;2023-04-24T14:02:44;4.23;;;3.77;;
74821;SDS011;63353;48.702;8.884;2023-04-24T14:05:15;5.23;;;3.77;;
74821;SDS011;63353;48.702;8.884;2023-04-24T14:07:41;4.40;;;3.87;;
74821;SDS011;63353;48.702;8.884;2023-04-24T14:10:07;4.70;;;4.07;;
74821;SDS011;63353;48.702;8.884;2023-04-24T14:12:33;5.33;;;4.57;;
74821;SDS011;63353;48.702;8.884;2023-04-24T14:14:59;4.80;;;4.30;;
74821;SDS011;63353;48.702;8.884;2023-04-24T14:17:29;3.93;;;3.53;;
74821;SDS011;63353;48.702;8.884;2023-04-24T14:19:55;4.17;;;3.23;;
74821;SDS011;63353;48.702;8.884;2023-04-24T14:22:21;3.70;;;3.40;;
74821;SDS011;63353;48.702;8.884;2023-04-24T14:24:47;4.07;;;3.67;;
74821;SDS011;63353;48.702;8.884;2023-04-24T14:27:16;4.30;;;3.90;;
74821;SDS011;63353;48.702;8.884;2023-04-24T14:29:42;4.17;;;3.70;;
74821;SDS011;63353;48.702;8.884;2023-04-24T14:32:07;4.00;;;3.70;;
74821;SDS011;63353;48.702;8.884;2023-04-24T14:34:40;4.10;;;3.80;;
74821;SDS011;63353;48.702;8.884;2023-04-24T14:37:06;3.60;;;3.30;;
74821;SDS011;63353;48.702;8.884;2023-04-24T14:39:32;4.27;;;3.50;;
74821;SDS011;63353;48.702;8.884;2023-04-24T14:42:10;4.70;;;3.83;;
74821;SDS011;63353;48.702;8.884;2023-04-24T14:44:35;3.50;;;3.27;;
74821;SDS011;63353;48.702;8.884;2023-04-24T14:47:01;3.37;;;3.10;;
74821;SDS011;63353;48.702;8.884;2023-04-24T14:49:38;3.97;;;3.33;;
74821;SDS011;63353;48.702;8.884;2023-04-24T14:52:04;3.43;;;3.10;;
74821;SDS011;63353;48.702;8.884;2023-04-24T14:54:32;3.90;;;3.60;;
74821;SDS011;63353;48.702;8.884;2023-04-24T14:56:58;5.03;;;3.67;;
74821;SDS011;63353;48.702;8.884;2023-04-24T14:59:27;3.20;;;2.90;;
74821;SDS011;63353;48.702;8.884;2023-04-24T15:01:53;3.43;;;2.90;;
74821;SDS011;63353;48.702;8.884;2023-04-24T15:04:23;3.77;;;2.77;;
74821;SDS011;63353;48.702;8.884;2023-04-24T15:06:50;3.57;;;2.77;;
74821;SDS011;63353;48.702;8.884;2023-04-24T15:09:16;3.77;;;3.30;;
74821;SDS011;63353;48.702;8.884;2023-04-24T15:11:42;3.60;;;3.30;;
74821;SDS011;63353;48.702;8.884;2023-04-24T15:14:08;2.90;;;2.70;;
74821;SDS011;63353;48.702;8.884;2023-04-24T15:16:33;3.00;;;2.80;;
74821;SDS011;63353;48.702;8.884;2023-04-24T15:18:59;3.67;;;2.90;;
74821;SDS011;63353;48.702;8.884;2023-04-24T15:21:28;3.10;;;2.80;;
74821;SDS011;63353;48.702;8.884;2023-04-24T15:23:56;3.10;;;2.90;;
74821;SDS011;63353;48.702;8.884;2023-04-24T15:26:22;3.23;;;2.90;;